sensor_id;sensor_type;location;lat;lon;timestamp;temperature;humidity
25949;DHT22;13961;51.178;4.448;2023-06-22T00:01:04;20.80;99.90
25949;DHT22;13961;51.178;4.448;2023-06-22T00:03:30;20.80;99.90
25949;DHT22;13961;51.178;4.448;2023-06-22T00:05:56;20.90;99.90
25949;DHT22;13961;51.178;4.448;2023-06-22T00:08:22;21.00;99.90
25949;DHT22;13961;51.178;4.448;2023-06-22T00:10:47;21.10;99.90
25949;DHT22;13961;51.178;4.448;2023-06-22T00:13:13;21.00;99.90
25949;DHT22;13961;51.178;4.448;2023-06-22T00:15:42;21.00;99.90
25949;DHT22;13961;51.178;4.448;2023-06-22T00:18:08;20.90;99.90
25949;DHT22;13961;51.178;4.448;2023-06-22T00:20:35;20.80;99.90
25949;DHT22;13961;51.178;4.448;2023-06-22T00:23:05;20.80;99.90
25949;DHT22;13961;51.178;4.448;2023-06-22T00:25:35;20.80;99.90
25949;DHT22;13961;51.178;4.448;2023-06-22T00:28:02;20.70;99.90
25949;DHT22;13961;51.178;4.448;2023-06-22T00:30:28;20.50;99.90
25949;DHT22;13961;51.178;4.448;2023-06-22T00:32:54;20.60;99.90
25949;DHT22;13961;51.178;4.448;2023-06-22T00:35:19;20.60;99.90
25949;DHT22;13961;51.178;4.448;2023-06-22T00:37:45;20.60;99.90
25949;DHT22;13961;51.178;4.448;2023-06-22T00:40:11;20.40;99.90
25949;DHT22;13961;51.178;4.448;2023-06-22T00:42:40;20.30;99.90
25949;DHT22;13961;51.178;4.448;2023-06-22T00:45:07;20.30;99.90
25949;DHT22;13961;51.178;4.448;2023-06-22T00:47:36;20.40;99.90
25949;DHT22;13961;51.178;4.448;2023-06-22T00:50:06;20.40;99.90
25949;DHT22;13961;51.178;4.448;2023-06-22T00:52:33;20.40;99.90
25949;DHT22;13961;51.178;4.448;2023-06-22T00:55:02;20.30;99.90
25949;DHT22;13961;51.178;4.448;2023-06-22T00:57:28;20.20;99.90
25949;DHT22;13961;51.178;4.448;2023-06-22T00:59:54;20.30;99.90
25949;DHT22;13961;51.178;4.448;2023-06-22T01:02:20;20.20;99.90
25949;DHT22;13961;51.178;4.448;2023-06-22T01:04:46;20.10;99.90
25949;DHT22;13961;51.178;4.448;2023-06-22T01:07:38;20.20;99.90
25949;DHT22;13961;51.178;4.448;2023-06-22T01:15:46;20.00;99.90
25949;DHT22;13961;51.178;4.448;2023-06-22T01:18:17;20.10;99.90
25949;DHT22;13961;51.178;4.448;2023-06-22T01:20:44;20.10;99.90
25949;DHT22;13961;51.178;4.448;2023-06-22T01:26:16;19.90;99.90
25949;DHT22;13961;51.178;4.448;2023-06-22T01:28:49;19.70;99.90
25949;DHT22;13961;51.178;4.448;2023-06-22T01:31:23;19.80;99.90
25949;DHT22;13961;51.178;4.448;2023-06-22T01:34:00;19.80;99.90
25949;DHT22;13961;51.178;4.448;2023-06-22T01:36:27;19.90;99.90
25949;DHT22;13961;51.178;4.448;2023-06-22T01:38:53;19.80;99.90
25949;DHT22;13961;51.178;4.448;2023-06-22T01:41:24;19.80;99.90
25949;DHT22;13961;51.178;4.448;2023-06-22T01:43:50;19.90;99.90
25949;DHT22;13961;51.178;4.448;2023-06-22T01:46:17;20.00;99.90
25949;DHT22;13961;51.178;4.448;2023-06-22T01:48:45;20.00;99.90
25949;DHT22;13961;51.178;4.448;2023-06-22T01:51:12;20.10;99.90
25949;DHT22;13961;51.178;4.448;2023-06-22T01:53:37;20.10;99.90
25949;DHT22;13961;51.178;4.448;2023-06-22T01:56:04;20.10;99.90
25949;DHT22;13961;51.178;4.448;2023-06-22T01:58:31;20.00;99.90
25949;DHT22;13961;51.178;4.448;2023-06-22T02:01:10;20.10;99.90
25949;DHT22;13961;51.178;4.448;2023-06-22T02:03:41;20.20;99.90
25949;DHT22;13961;51.178;4.448;2023-06-22T02:06:14;20.20;99.90
25949;DHT22;13961;51.178;4.448;2023-06-22T02:08:47;20.20;99.90
25949;DHT22;13961;51.178;4.448;2023-06-22T02:11:15;20.20;99.90
25949;DHT22;13961;51.178;4.448;2023-06-22T02:13:42;20.20;99.90
25949;DHT22;13961;51.178;4.448;2023-06-22T02:16:12;20.20;99.90
25949;DHT22;13961;51.178;4.448;2023-06-22T02:18:38;20.10;99.90
25949;DHT22;13961;51.178;4.448;2023-06-22T02:21:06;20.00;99.90
25949;DHT22;13961;51.178;4.448;2023-06-22T02:23:32;20.00;99.90
25949;DHT22;13961;51.178;4.448;2023-06-22T02:26:02;20.00;99.90
25949;DHT22;13961;51.178;4.448;2023-06-22T02:28:29;19.80;99.90
25949;DHT22;13961;51.178;4.448;2023-06-22T02:30:54;19.80;99.90
25949;DHT22;13961;51.178;4.448;2023-06-22T02:33:20;19.90;99.90
25949;DHT22;13961;51.178;4.448;2023-06-22T02:35:46;19.80;99.90
25949;DHT22;13961;51.178;4.448;2023-06-22T02:38:14;19.70;99.90
25949;DHT22;13961;51.178;4.448;2023-06-22T02:40:40;19.80;99.90
25949;DHT22;13961;51.178;4.448;2023-06-22T02:43:06;19.80;99.90
25949;DHT22;13961;51.178;4.448;2023-06-22T02:45:32;19.70;99.90
25949;DHT22;13961;51.178;4.448;2023-06-22T02:47:57;19.70;99.90
25949;DHT22;13961;51.178;4.448;2023-06-22T02:50:23;19.70;99.90
25949;DHT22;13961;51.178;4.448;2023-06-22T02:52:49;19.70;99.90
25949;DHT22;13961;51.178;4.448;2023-06-22T02:55:15;19.80;99.90
25949;DHT22;13961;51.178;4.448;2023-06-22T02:57:41;19.60;99.90
25949;DHT22;13961;51.178;4.448;2023-06-22T03:00:09;19.70;99.90
25949;DHT22;13961;51.178;4.448;2023-06-22T03:02:46;19.70;99.90
25949;DHT22;13961;51.178;4.448;2023-06-22T03:05:12;19.70;99.90
25949;DHT22;13961;51.178;4.448;2023-06-22T03:07:43;19.80;99.90
25949;DHT22;13961;51.178;4.448;2023-06-22T03:10:09;19.80;99.90
25949;DHT22;13961;51.178;4.448;2023-06-22T03:12:37;19.70;99.90
25949;DHT22;13961;51.178;4.448;2023-06-22T03:15:05;19.50;99.90
25949;DHT22;13961;51.178;4.448;2023-06-22T03:17:31;19.50;99.90
25949;DHT22;13961;51.178;4.448;2023-06-22T03:19:56;19.60;99.90
25949;DHT22;13961;51.178;4.448;2023-06-22T03:22:22;19.40;99.90
25949;DHT22;13961;51.178;4.448;2023-06-22T03:24:48;19.50;99.90
25949;DHT22;13961;51.178;4.448;2023-06-22T03:27:13;19.50;99.90
25949;DHT22;13961;51.178;4.448;2023-06-22T03:29:39;19.50;99.90
25949;DHT22;13961;51.178;4.448;2023-06-22T03:32:05;19.30;99.90
25949;DHT22;13961;51.178;4.448;2023-06-22T03:34:31;19.00;99.90
25949;DHT22;13961;51.178;4.448;2023-06-22T03:36:59;19.10;99.90
25949;DHT22;13961;51.178;4.448;2023-06-22T03:39:25;19.20;99.90
25949;DHT22;13961;51.178;4.448;2023-06-22T03:41:50;19.20;99.90
25949;DHT22;13961;51.178;4.448;2023-06-22T03:44:16;19.50;99.90
25949;DHT22;13961;51.178;4.448;2023-06-22T03:46:42;19.40;99.90
25949;DHT22;13961;51.178;4.448;2023-06-22T03:49:07;19.30;99.90
25949;DHT22;13961;51.178;4.448;2023-06-22T03:51:33;19.50;99.90
25949;DHT22;13961;51.178;4.448;2023-06-22T03:53:59;19.50;99.90
25949;DHT22;13961;51.178;4.448;2023-06-22T03:56:25;19.50;99.90
25949;DHT22;13961;51.178;4.448;2023-06-22T03:58:51;19.50;99.90
25949;DHT22;13961;51.178;4.448;2023-06-22T04:01:18;19.60;99.90
25949;DHT22;13961;51.178;4.448;2023-06-22T04:03:43;19.60;99.90
25949;DHT22;13961;51.178;4.448;2023-06-22T04:06:09;19.70;99.90
25949;DHT22;13961;51.178;4.448;2023-06-22T04:08:36;19.70;99.90
25949;DHT22;13961;51.178;4.448;2023-06-22T04:11:02;19.60;99.90
25949;DHT22;13961;51.178;4.448;2023-06-22T04:13:27;19.60;99.90
25949;DHT22;13961;51.178;4.448;2023-06-22T04:15:53;19.70;99.90
25949;DHT22;13961;51.178;4.448;2023-06-22T04:18:19;19.70;99.90
25949;DHT22;13961;51.178;4.448;2023-06-22T04:20:44;19.60;99.90
25949;DHT22;13961;51.178;4.448;2023-06-22T04:23:12;19.60;99.90
25949;DHT22;13961;51.178;4.448;2023-06-22T04:25:39;19.50;99.90
25949;DHT22;13961;51.178;4.448;2023-06-22T04:28:05;19.30;99.90
25949;DHT22;13961;51.178;4.448;2023-06-22T04:30:33;19.60;99.90
25949;DHT22;13961;51.178;4.448;2023-06-22T04:33:01;19.70;99.90
25949;DHT22;13961;51.178;4.448;2023-06-22T04:35:27;19.90;99.90
25949;DHT22;13961;51.178;4.448;2023-06-22T04:37:58;20.00;99.90
25949;DHT22;13961;51.178;4.448;2023-06-22T04:40:25;19.80;99.90
25949;DHT22;13961;51.178;4.448;2023-06-22T04:42:50;19.80;99.90
25949;DHT22;13961;51.178;4.448;2023-06-22T04:45:21;19.90;99.90
25949;DHT22;13961;51.178;4.448;2023-06-22T04:47:47;20.00;99.90
25949;DHT22;13961;51.178;4.448;2023-06-22T04:50:13;20.10;99.90
25949;DHT22;13961;51.178;4.448;2023-06-22T04:52:39;20.00;99.90
25949;DHT22;13961;51.178;4.448;2023-06-22T04:55:06;20.10;99.90
25949;DHT22;13961;51.178;4.448;2023-06-22T04:57:32;20.00;99.90
25949;DHT22;13961;51.178;4.448;2023-06-22T05:00:01;19.90;99.90
25949;DHT22;13961;51.178;4.448;2023-06-22T05:02:41;19.90;99.90
25949;DHT22;13961;51.178;4.448;2023-06-22T05:05:07;19.90;99.90
25949;DHT22;13961;51.178;4.448;2023-06-22T05:07:34;20.10;99.90
25949;DHT22;13961;51.178;4.448;2023-06-22T05:10:04;20.20;99.90
25949;DHT22;13961;51.178;4.448;2023-06-22T05:12:30;20.40;99.90
25949;DHT22;13961;51.178;4.448;2023-06-22T05:14:56;20.60;99.90
25949;DHT22;13961;51.178;4.448;2023-06-22T05:17:24;20.60;99.90
25949;DHT22;13961;51.178;4.448;2023-06-22T05:19:49;20.80;99.90
25949;DHT22;13961;51.178;4.448;2023-06-22T05:22:15;20.90;99.90
25949;DHT22;13961;51.178;4.448;2023-06-22T05:24:42;21.20;99.90
25949;DHT22;13961;51.178;4.448;2023-06-22T05:27:08;21.40;99.90
25949;DHT22;13961;51.178;4.448;2023-06-22T05:29:34;21.50;99.90
25949;DHT22;13961;51.178;4.448;2023-06-22T05:32:01;21.40;99.90
25949;DHT22;13961;51.178;4.448;2023-06-22T05:34:27;21.20;99.90
25949;DHT22;13961;51.178;4.448;2023-06-22T05:36:52;21.40;99.90
25949;DHT22;13961;51.178;4.448;2023-06-22T05:39:18;21.50;99.90
25949;DHT22;13961;51.178;4.448;2023-06-22T05:41:45;21.70;99.90
25949;DHT22;13961;51.178;4.448;2023-06-22T05:44:11;21.90;99.90
25949;DHT22;13961;51.178;4.448;2023-06-22T05:46:36;22.10;99.90
25949;DHT22;13961;51.178;4.448;2023-06-22T05:49:02;22.10;99.90
25949;DHT22;13961;51.178;4.448;2023-06-22T05:51:29;22.10;99.90
25949;DHT22;13961;51.178;4.448;2023-06-22T05:53:54;22.10;99.90
25949;DHT22;13961;51.178;4.448;2023-06-22T05:56:20;22.10;99.90
25949;DHT22;13961;51.178;4.448;2023-06-22T05:58:46;22.10;99.90
25949;DHT22;13961;51.178;4.448;2023-06-22T06:01:13;22.10;99.90
25949;DHT22;13961;51.178;4.448;2023-06-22T06:03:41;22.20;99.90
25949;DHT22;13961;51.178;4.448;2023-06-22T06:06:08;22.00;99.90
25949;DHT22;13961;51.178;4.448;2023-06-22T06:08:33;22.30;99.90
25949;DHT22;13961;51.178;4.448;2023-06-22T06:10:59;22.60;99.90
25949;DHT22;13961;51.178;4.448;2023-06-22T06:13:25;22.70;99.90
25949;DHT22;13961;51.178;4.448;2023-06-22T06:15:50;22.50;99.90
25949;DHT22;13961;51.178;4.448;2023-06-22T06:18:17;22.50;99.90
25949;DHT22;13961;51.178;4.448;2023-06-22T06:20:42;22.40;99.90
25949;DHT22;13961;51.178;4.448;2023-06-22T06:23:08;21.90;99.90
25949;DHT22;13961;51.178;4.448;2023-06-22T06:25:34;21.80;99.90
25949;DHT22;13961;51.178;4.448;2023-06-22T06:28:05;21.90;99.90
25949;DHT22;13961;51.178;4.448;2023-06-22T06:30:31;22.10;99.90
25949;DHT22;13961;51.178;4.448;2023-06-22T06:32:59;22.40;99.90
25949;DHT22;13961;51.178;4.448;2023-06-22T06:35:25;22.40;99.90
25949;DHT22;13961;51.178;4.448;2023-06-22T06:37:59;22.40;99.90
25949;DHT22;13961;51.178;4.448;2023-06-22T06:40:25;22.40;99.90
25949;DHT22;13961;51.178;4.448;2023-06-22T06:42:51;22.00;99.90
25949;DHT22;13961;51.178;4.448;2023-06-22T06:45:22;21.80;99.90
25949;DHT22;13961;51.178;4.448;2023-06-22T06:47:48;21.90;99.90
25949;DHT22;13961;51.178;4.448;2023-06-22T06:50:15;21.80;99.90
25949;DHT22;13961;51.178;4.448;2023-06-22T06:52:40;22.20;99.90
25949;DHT22;13961;51.178;4.448;2023-06-22T06:55:07;22.10;99.90
25949;DHT22;13961;51.178;4.448;2023-06-22T06:57:37;22.20;99.90
25949;DHT22;13961;51.178;4.448;2023-06-22T07:00:10;22.20;99.90
25949;DHT22;13961;51.178;4.448;2023-06-22T07:02:38;22.40;99.90
25949;DHT22;13961;51.178;4.448;2023-06-22T07:05:09;22.50;99.90
25949;DHT22;13961;51.178;4.448;2023-06-22T07:07:35;22.40;99.90
25949;DHT22;13961;51.178;4.448;2023-06-22T07:10:01;22.20;99.90
25949;DHT22;13961;51.178;4.448;2023-06-22T07:12:27;22.10;99.90
25949;DHT22;13961;51.178;4.448;2023-06-22T07:14:53;22.30;99.90
25949;DHT22;13961;51.178;4.448;2023-06-22T07:17:19;22.40;99.90
25949;DHT22;13961;51.178;4.448;2023-06-22T07:19:45;22.00;99.90
25949;DHT22;13961;51.178;4.448;2023-06-22T07:22:10;21.90;99.90
25949;DHT22;13961;51.178;4.448;2023-06-22T07:24:36;22.10;99.90
25949;DHT22;13961;51.178;4.448;2023-06-22T07:27:03;22.00;99.90
25949;DHT22;13961;51.178;4.448;2023-06-22T07:29:30;21.80;99.90
25949;DHT22;13961;51.178;4.448;2023-06-22T07:31:57;21.70;99.90
25949;DHT22;13961;51.178;4.448;2023-06-22T07:34:23;21.90;99.90
25949;DHT22;13961;51.178;4.448;2023-06-22T07:36:48;22.00;99.90
25949;DHT22;13961;51.178;4.448;2023-06-22T07:39:14;22.10;99.90
25949;DHT22;13961;51.178;4.448;2023-06-22T07:41:43;22.20;99.90
25949;DHT22;13961;51.178;4.448;2023-06-22T07:44:09;22.30;99.90
25949;DHT22;13961;51.178;4.448;2023-06-22T07:46:34;22.20;99.90
25949;DHT22;13961;51.178;4.448;2023-06-22T07:49:03;22.30;99.90
25949;DHT22;13961;51.178;4.448;2023-06-22T07:51:28;22.50;99.90
25949;DHT22;13961;51.178;4.448;2023-06-22T07:53:54;22.40;99.90
25949;DHT22;13961;51.178;4.448;2023-06-22T07:56:20;22.40;99.90
25949;DHT22;13961;51.178;4.448;2023-06-22T07:58:47;22.30;99.90
25949;DHT22;13961;51.178;4.448;2023-06-22T08:01:15;22.50;99.90
25949;DHT22;13961;51.178;4.448;2023-06-22T08:03:42;22.20;99.90
25949;DHT22;13961;51.178;4.448;2023-06-22T08:06:08;22.50;99.90
25949;DHT22;13961;51.178;4.448;2023-06-22T08:08:35;22.60;99.90
25949;DHT22;13961;51.178;4.448;2023-06-22T08:11:01;22.50;99.90
25949;DHT22;13961;51.178;4.448;2023-06-22T08:13:27;22.30;99.90
25949;DHT22;13961;51.178;4.448;2023-06-22T08:15:52;22.30;99.90
25949;DHT22;13961;51.178;4.448;2023-06-22T08:18:19;22.40;99.90
25949;DHT22;13961;51.178;4.448;2023-06-22T08:20:45;22.60;99.90
25949;DHT22;13961;51.178;4.448;2023-06-22T08:23:11;22.50;99.90
25949;DHT22;13961;51.178;4.448;2023-06-22T08:25:39;22.50;99.90
25949;DHT22;13961;51.178;4.448;2023-06-22T08:28:11;22.50;99.90
25949;DHT22;13961;51.178;4.448;2023-06-22T08:30:38;22.50;99.90
25949;DHT22;13961;51.178;4.448;2023-06-22T08:33:07;22.60;99.90
25949;DHT22;13961;51.178;4.448;2023-06-22T08:35:32;22.80;99.90
25949;DHT22;13961;51.178;4.448;2023-06-22T08:38:01;22.90;99.90
25949;DHT22;13961;51.178;4.448;2023-06-22T08:40:27;23.10;99.90
25949;DHT22;13961;51.178;4.448;2023-06-22T08:42:54;22.90;99.90
25949;DHT22;13961;51.178;4.448;2023-06-22T08:45:20;23.10;99.90
25949;DHT22;13961;51.178;4.448;2023-06-22T08:47:46;23.10;99.90
25949;DHT22;13961;51.178;4.448;2023-06-22T08:50:12;23.30;99.90
25949;DHT22;13961;51.178;4.448;2023-06-22T08:52:38;23.10;99.90
25949;DHT22;13961;51.178;4.448;2023-06-22T08:55:07;23.20;99.90
25949;DHT22;13961;51.178;4.448;2023-06-22T08:57:37;23.20;99.90
25949;DHT22;13961;51.178;4.448;2023-06-22T09:00:08;23.00;99.90
25949;DHT22;13961;51.178;4.448;2023-06-22T09:02:48;22.90;99.90
25949;DHT22;13961;51.178;4.448;2023-06-22T09:05:14;23.00;99.90
25949;DHT22;13961;51.178;4.448;2023-06-22T09:07:40;23.00;99.90
25949;DHT22;13961;51.178;4.448;2023-06-22T09:10:06;23.10;99.90
25949;DHT22;13961;51.178;4.448;2023-06-22T09:12:32;23.10;99.90
25949;DHT22;13961;51.178;4.448;2023-06-22T09:14:59;23.10;99.90
25949;DHT22;13961;51.178;4.448;2023-06-22T09:17:26;23.00;99.90
25949;DHT22;13961;51.178;4.448;2023-06-22T09:19:55;22.90;99.90
25949;DHT22;13961;51.178;4.448;2023-06-22T09:22:21;22.70;99.90
25949;DHT22;13961;51.178;4.448;2023-06-22T09:24:49;22.80;99.90
25949;DHT22;13961;51.178;4.448;2023-06-22T09:27:15;23.00;99.90
25949;DHT22;13961;51.178;4.448;2023-06-22T09:29:41;23.20;99.90
25949;DHT22;13961;51.178;4.448;2023-06-22T09:32:07;23.00;99.90
25949;DHT22;13961;51.178;4.448;2023-06-22T09:34:32;23.00;99.90
25949;DHT22;13961;51.178;4.448;2023-06-22T09:36:58;22.90;99.90
25949;DHT22;13961;51.178;4.448;2023-06-22T09:39:26;23.00;99.90
25949;DHT22;13961;51.178;4.448;2023-06-22T09:41:54;23.00;99.90
25949;DHT22;13961;51.178;4.448;2023-06-22T09:44:23;23.10;99.90
25949;DHT22;13961;51.178;4.448;2023-06-22T09:46:48;23.00;99.90
25949;DHT22;13961;51.178;4.448;2023-06-22T09:49:14;23.00;99.90
25949;DHT22;13961;51.178;4.448;2023-06-22T09:51:40;22.90;99.90
25949;DHT22;13961;51.178;4.448;2023-06-22T09:54:05;22.80;99.90
25949;DHT22;13961;51.178;4.448;2023-06-22T09:56:31;22.80;99.90
25949;DHT22;13961;51.178;4.448;2023-06-22T09:58:59;22.90;99.90
25949;DHT22;13961;51.178;4.448;2023-06-22T10:01:25;22.80;99.90
25949;DHT22;13961;51.178;4.448;2023-06-22T10:03:52;22.90;99.90
25949;DHT22;13961;51.178;4.448;2023-06-22T10:06:22;22.80;99.90
25949;DHT22;13961;51.178;4.448;2023-06-22T10:08:51;22.80;99.90
25949;DHT22;13961;51.178;4.448;2023-06-22T10:11:16;22.80;99.90
25949;DHT22;13961;51.178;4.448;2023-06-22T10:13:42;23.00;99.90
25949;DHT22;13961;51.178;4.448;2023-06-22T10:16:08;23.00;99.90
25949;DHT22;13961;51.178;4.448;2023-06-22T10:18:34;22.90;99.90
25949;DHT22;13961;51.178;4.448;2023-06-22T10:21:00;22.80;99.90
25949;DHT22;13961;51.178;4.448;2023-06-22T10:23:26;22.70;99.90
25949;DHT22;13961;51.178;4.448;2023-06-22T10:25:52;22.90;99.90
25949;DHT22;13961;51.178;4.448;2023-06-22T10:28:18;23.00;99.90
25949;DHT22;13961;51.178;4.448;2023-06-22T10:30:46;22.60;99.90
25949;DHT22;13961;51.178;4.448;2023-06-22T10:33:12;22.50;99.90
25949;DHT22;13961;51.178;4.448;2023-06-22T10:35:38;22.70;99.90
25949;DHT22;13961;51.178;4.448;2023-06-22T10:38:04;22.40;99.90
25949;DHT22;13961;51.178;4.448;2023-06-22T10:40:30;22.50;99.90
25949;DHT22;13961;51.178;4.448;2023-06-22T10:42:56;22.60;99.90
25949;DHT22;13961;51.178;4.448;2023-06-22T10:45:22;22.60;99.90
25949;DHT22;13961;51.178;4.448;2023-06-22T10:47:48;22.50;99.90
25949;DHT22;13961;51.178;4.448;2023-06-22T10:50:18;22.30;99.90
25949;DHT22;13961;51.178;4.448;2023-06-22T10:52:43;22.20;99.90
25949;DHT22;13961;51.178;4.448;2023-06-22T10:55:10;22.30;99.90
25949;DHT22;13961;51.178;4.448;2023-06-22T10:57:36;22.40;99.90
25949;DHT22;13961;51.178;4.448;2023-06-22T11:00:02;22.50;99.90
25949;DHT22;13961;51.178;4.448;2023-06-22T11:02:31;22.40;99.90
25949;DHT22;13961;51.178;4.448;2023-06-22T11:04:57;22.40;99.90
25949;DHT22;13961;51.178;4.448;2023-06-22T11:07:26;22.10;99.90
25949;DHT22;13961;51.178;4.448;2023-06-22T11:09:54;22.10;99.90
25949;DHT22;13961;51.178;4.448;2023-06-22T11:12:20;22.10;99.90
25949;DHT22;13961;51.178;4.448;2023-06-22T11:14:45;22.00;99.90
25949;DHT22;13961;51.178;4.448;2023-06-22T11:17:11;21.80;99.90
25949;DHT22;13961;51.178;4.448;2023-06-22T11:19:36;21.40;99.90
25949;DHT22;13961;51.178;4.448;2023-06-22T11:22:02;21.50;99.90
25949;DHT22;13961;51.178;4.448;2023-06-22T11:24:28;21.60;99.90
25949;DHT22;13961;51.178;4.448;2023-06-22T11:26:54;21.70;99.90
25949;DHT22;13961;51.178;4.448;2023-06-22T11:29:19;21.70;99.90
25949;DHT22;13961;51.178;4.448;2023-06-22T11:31:45;21.70;99.90
25949;DHT22;13961;51.178;4.448;2023-06-22T11:34:10;21.70;99.90
25949;DHT22;13961;51.178;4.448;2023-06-22T11:36:36;21.70;99.90
25949;DHT22;13961;51.178;4.448;2023-06-22T11:39:03;21.60;99.90
25949;DHT22;13961;51.178;4.448;2023-06-22T11:41:28;21.40;99.90
25949;DHT22;13961;51.178;4.448;2023-06-22T11:43:54;21.20;99.90
25949;DHT22;13961;51.178;4.448;2023-06-22T11:46:20;21.00;99.90
25949;DHT22;13961;51.178;4.448;2023-06-22T11:48:46;21.00;99.90
25949;DHT22;13961;51.178;4.448;2023-06-22T11:51:11;21.10;99.90
25949;DHT22;13961;51.178;4.448;2023-06-22T11:53:37;21.10;99.90
25949;DHT22;13961;51.178;4.448;2023-06-22T11:56:03;20.90;99.90
25949;DHT22;13961;51.178;4.448;2023-06-22T11:58:28;20.70;99.90
25949;DHT22;13961;51.178;4.448;2023-06-22T12:00:54;20.80;99.90
25949;DHT22;13961;51.178;4.448;2023-06-22T12:03:20;20.70;99.90
25949;DHT22;13961;51.178;4.448;2023-06-22T12:05:47;20.60;99.90
25949;DHT22;13961;51.178;4.448;2023-06-22T12:08:13;20.50;99.90
25949;DHT22;13961;51.178;4.448;2023-06-22T12:10:39;20.40;99.90
25949;DHT22;13961;51.178;4.448;2023-06-22T12:13:05;20.10;99.90
25949;DHT22;13961;51.178;4.448;2023-06-22T12:15:30;20.00;99.90
25949;DHT22;13961;51.178;4.448;2023-06-22T12:17:56;19.90;99.90
25949;DHT22;13961;51.178;4.448;2023-06-22T12:20:22;19.80;99.90
25949;DHT22;13961;51.178;4.448;2023-06-22T12:22:47;19.60;99.90
25949;DHT22;13961;51.178;4.448;2023-06-22T12:25:15;19.50;99.90
25949;DHT22;13961;51.178;4.448;2023-06-22T12:27:40;19.40;99.90
25949;DHT22;13961;51.178;4.448;2023-06-22T12:30:06;19.30;99.90
25949;DHT22;13961;51.178;4.448;2023-06-22T12:32:32;19.30;99.90
25949;DHT22;13961;51.178;4.448;2023-06-22T12:34:57;19.30;99.90
25949;DHT22;13961;51.178;4.448;2023-06-22T12:37:23;19.20;99.90
25949;DHT22;13961;51.178;4.448;2023-06-22T12:39:49;19.10;99.90
25949;DHT22;13961;51.178;4.448;2023-06-22T12:42:16;19.20;99.90
25949;DHT22;13961;51.178;4.448;2023-06-22T12:44:42;19.20;99.90
25949;DHT22;13961;51.178;4.448;2023-06-22T12:47:08;19.30;99.90
25949;DHT22;13961;51.178;4.448;2023-06-22T12:49:37;19.50;99.90
25949;DHT22;13961;51.178;4.448;2023-06-22T12:52:03;19.50;99.90
25949;DHT22;13961;51.178;4.448;2023-06-22T12:54:29;19.40;99.90
25949;DHT22;13961;51.178;4.448;2023-06-22T12:56:55;19.50;99.90
25949;DHT22;13961;51.178;4.448;2023-06-22T12:59:22;19.60;99.90
25949;DHT22;13961;51.178;4.448;2023-06-22T13:01:47;19.70;99.90
25949;DHT22;13961;51.178;4.448;2023-06-22T13:04:13;19.80;99.90
25949;DHT22;13961;51.178;4.448;2023-06-22T13:06:41;19.80;99.90
25949;DHT22;13961;51.178;4.448;2023-06-22T13:09:07;19.80;99.90
25949;DHT22;13961;51.178;4.448;2023-06-22T13:11:33;19.80;99.90
25949;DHT22;13961;51.178;4.448;2023-06-22T13:13:58;19.80;99.90
25949;DHT22;13961;51.178;4.448;2023-06-22T13:16:24;19.90;99.90
25949;DHT22;13961;51.178;4.448;2023-06-22T13:18:49;19.80;99.90
25949;DHT22;13961;51.178;4.448;2023-06-22T13:21:15;19.70;99.90
25949;DHT22;13961;51.178;4.448;2023-06-22T13:23:41;19.80;99.90
25949;DHT22;13961;51.178;4.448;2023-06-22T13:26:07;19.70;99.90
25949;DHT22;13961;51.178;4.448;2023-06-22T13:28:33;19.60;99.90
25949;DHT22;13961;51.178;4.448;2023-06-22T13:30:59;19.60;99.90
25949;DHT22;13961;51.178;4.448;2023-06-22T13:33:24;19.70;99.90
25949;DHT22;13961;51.178;4.448;2023-06-22T13:35:53;19.50;99.90
25949;DHT22;13961;51.178;4.448;2023-06-22T13:38:18;19.50;99.90
25949;DHT22;13961;51.178;4.448;2023-06-22T13:40:44;19.50;99.90
25949;DHT22;13961;51.178;4.448;2023-06-22T13:43:10;19.50;99.90
25949;DHT22;13961;51.178;4.448;2023-06-22T13:45:36;19.60;99.90
25949;DHT22;13961;51.178;4.448;2023-06-22T13:48:05;19.70;99.90
25949;DHT22;13961;51.178;4.448;2023-06-22T13:50:30;19.50;99.90
25949;DHT22;13961;51.178;4.448;2023-06-22T13:52:56;19.50;99.90
25949;DHT22;13961;51.178;4.448;2023-06-22T13:55:22;19.50;99.90
25949;DHT22;13961;51.178;4.448;2023-06-22T13:57:49;19.60;99.90
25949;DHT22;13961;51.178;4.448;2023-06-22T14:00:17;19.60;99.90
25949;DHT22;13961;51.178;4.448;2023-06-22T14:02:43;19.60;99.90
25949;DHT22;13961;51.178;4.448;2023-06-22T14:05:09;19.70;99.90
25949;DHT22;13961;51.178;4.448;2023-06-22T14:07:35;19.70;99.90
25949;DHT22;13961;51.178;4.448;2023-06-22T14:10:01;19.60;99.90
25949;DHT22;13961;51.178;4.448;2023-06-22T14:12:27;19.70;99.90
25949;DHT22;13961;51.178;4.448;2023-06-22T14:14:52;19.70;99.90
25949;DHT22;13961;51.178;4.448;2023-06-22T14:17:18;19.70;99.90
25949;DHT22;13961;51.178;4.448;2023-06-22T14:19:49;19.70;99.90
25949;DHT22;13961;51.178;4.448;2023-06-22T14:22:21;19.70;99.90
25949;DHT22;13961;51.178;4.448;2023-06-22T14:24:48;19.60;99.90
25949;DHT22;13961;51.178;4.448;2023-06-22T14:27:13;19.70;99.90
25949;DHT22;13961;51.178;4.448;2023-06-22T14:29:39;19.80;99.90
25949;DHT22;13961;51.178;4.448;2023-06-22T14:32:05;19.70;99.90
25949;DHT22;13961;51.178;4.448;2023-06-22T14:34:32;19.60;99.90
25949;DHT22;13961;51.178;4.448;2023-06-22T14:36:58;19.80;99.90
25949;DHT22;13961;51.178;4.448;2023-06-22T14:39:23;19.70;99.90
25949;DHT22;13961;51.178;4.448;2023-06-22T14:41:49;19.80;99.90
25949;DHT22;13961;51.178;4.448;2023-06-22T14:44:15;19.90;99.90
25949;DHT22;13961;51.178;4.448;2023-06-22T14:46:41;19.90;99.90
25949;DHT22;13961;51.178;4.448;2023-06-22T14:49:06;19.90;99.90
25949;DHT22;13961;51.178;4.448;2023-06-22T14:51:32;19.90;99.90
25949;DHT22;13961;51.178;4.448;2023-06-22T14:53:58;19.80;99.90
25949;DHT22;13961;51.178;4.448;2023-06-22T14:56:23;19.90;99.90
25949;DHT22;13961;51.178;4.448;2023-06-22T14:58:49;19.90;99.90
25949;DHT22;13961;51.178;4.448;2023-06-22T15:01:17;19.90;99.90
25949;DHT22;13961;51.178;4.448;2023-06-22T15:03:42;19.90;99.90
25949;DHT22;13961;51.178;4.448;2023-06-22T15:06:09;20.00;99.90
25949;DHT22;13961;51.178;4.448;2023-06-22T15:08:37;20.10;99.90
25949;DHT22;13961;51.178;4.448;2023-06-22T15:11:03;20.10;99.90
25949;DHT22;13961;51.178;4.448;2023-06-22T15:13:30;20.10;99.90
25949;DHT22;13961;51.178;4.448;2023-06-22T15:15:59;20.00;99.90
25949;DHT22;13961;51.178;4.448;2023-06-22T15:18:25;20.00;99.90
25949;DHT22;13961;51.178;4.448;2023-06-22T15:20:52;20.10;99.90
25949;DHT22;13961;51.178;4.448;2023-06-22T15:23:18;20.20;99.90
25949;DHT22;13961;51.178;4.448;2023-06-22T15:25:43;20.20;99.90
25949;DHT22;13961;51.178;4.448;2023-06-22T15:28:10;20.10;99.90
25949;DHT22;13961;51.178;4.448;2023-06-22T15:30:36;20.20;99.90
25949;DHT22;13961;51.178;4.448;2023-06-22T15:33:01;20.30;99.90
25949;DHT22;13961;51.178;4.448;2023-06-22T15:35:27;20.30;99.90